Republic, Washington
Current Conditions -  °F | °C
As of 3:53 PM on Saturday 22 Nov 2014 (Local Time) from KOMK Reporting Station
Clear Clear  
Wind Chill: 35°   Ceiling: Unl
Heat Index: 35°   Visibility: 10mi
Dew Point: 31°   Wind: 0mph
Humidity: 85%   Direction: NA
Pressure: 29.8"   Gusts: NA
Location:  48.65°N, 118.74°W
Report Text: KOMK 222353Z AUTO 00000KT 10SM CLR 02/M01 A2980 RMK AO2 SLP102 T00171006 10039 20006 53032
Loading
Personal Weather Stations






























Interactive Weather Map New forecast layout! Learn more

10-Day Weather Forecast

Advertisements
Track Severe Weather on mobile